Time;durP1;ratioP1;P1;durP2;ratioP2;P2;SDS_P1;SDS_P2;PMS_P1;PMS_P2;Temp;Humidity;BMP_temperature;BMP_pressure;BME280_temperature;BME280_humidity;BME280_pressure;Samples;Min_cycle;Max_cycle;Signal;HPM_P1;HPM_P2
2019/11/02 00:01:13;;;;;;;4.2;2.9;;;;;;;;;;;;;
2019/11/02 00:03:44;;;;;;;3.7;2.6;;;;;;;;;;;;;
2019/11/02 00:06:00;;;;;;;3.3;2.6;;;;;;;;;;;;;
2019/11/02 00:08:47;;;;;;;4;2.9;;;;;;;;;;;;;
2019/11/02 00:10:52;;;;;;;4.6;2.9;;;;;;;;;;;;;
2019/11/02 00:13:15;;;;;;;4;3.4;;;;;;;;;;;;;
2019/11/02 00:15:41;;;;;;;4.4;3.1;;;;;;;;;;;;;
2019/11/02 00:18:12;;;;;;;5.6;4.6;;;;;;;;;;;;;
2019/11/02 00:20:33;;;;;;;5.2;3.3;;;;;;;;;;;;;
2019/11/02 00:22:57;;;;;;;5;3.9;;;;;;;;;;;;;
2019/11/02 00:25:22;;;;;;;5.7;3.5;;;;;;;;;;;;;
2019/11/02 00:27:52;;;;;;;4.4;3.2;;;;;;;;;;;;;
2019/11/02 00:30:17;;;;;;;4.8;2.7;;;;;;;;;;;;;
2019/11/02 00:32:38;;;;;;;5.3;2.5;;;;;;;;;;;;;
2019/11/02 00:35:04;;;;;;;5.3;2.5;;;;;;;;;;;;;
2019/11/02 00:38:17;;;;;;;3.6;2.3;;;;;;;;;;;;;
2019/11/02 00:39:55;;;;;;;3.2;2.7;;;;;;;;;;;;;
2019/11/02 00:42:20;;;;;;;4.6;2.7;;;;;;;;;;;;;
2019/11/02 00:44:48;;;;;;;3.3;2.9;;;;;;;;;;;;;
2019/11/02 00:47:11;;;;;;;4.3;2.9;;;;;;;;;;;;;
2019/11/02 00:49:39;;;;;;;3.9;2.7;;;;;;;;;;;;;
2019/11/02 00:52:01;;;;;;;3.1;2.5;;;;;;;;;;;;;
2019/11/02 00:54:30;;;;;;;4.4;2.6;;;;;;;;;;;;;
2019/11/02 00:56:55;;;;;;;3.8;2.5;;;;;;;;;;;;;
2019/11/02 00:59:20;;;;;;;4.8;2.5;;;;;;;;;;;;;
2019/11/02 01:01:48;;;;;;;3.7;2.7;;;;;;;;;;;;;
2019/11/02 01:04:17;;;;;;;6.1;2.9;;;;;;;;;;;;;
2019/11/02 01:06:38;;;;;;;4.9;3;;;;;;;;;;;;;
2019/11/02 01:09:02;;;;;;;4.8;2.5;;;;;;;;;;;;;
2019/11/02 01:11:30;;;;;;;3.8;2.6;;;;;;;;;;;;;
2019/11/02 01:13:55;;;;;;;3.3;2.5;;;;;;;;;;;;;
2019/11/02 01:16:24;;;;;;;3.1;2.3;;;;;;;;;;;;;
2019/11/02 01:18:48;;;;;;;4.4;2.4;;;;;;;;;;;;;
2019/11/02 01:21:13;;;;;;;3.9;2.7;;;;;;;;;;;;;
2019/11/02 01:23:38;;;;;;;7.8;2.8;;;;;;;;;;;;;
2019/11/02 01:26:07;;;;;;;3.2;2.6;;;;;;;;;;;;;
2019/11/02 01:28:30;;;;;;;3.6;2.7;;;;;;;;;;;;;
2019/11/02 01:30:58;;;;;;;3.5;2.9;;;;;;;;;;;;;
2019/11/02 01:33:21;;;;;;;4.1;3.1;;;;;;;;;;;;;
2019/11/02 01:35:50;;;;;;;5;2.6;;;;;;;;;;;;;
2019/11/02 01:38:12;;;;;;;4.5;2.5;;;;;;;;;;;;;
2019/11/02 01:40:37;;;;;;;5;2.4;;;;;;;;;;;;;
2019/11/02 01:43:01;;;;;;;3.4;2.2;;;;;;;;;;;;;
2019/11/02 01:45:30;;;;;;;3.3;2.4;;;;;;;;;;;;;
2019/11/02 01:47:53;;;;;;;2.7;1.7;;;;;;;;;;;;;
2019/11/02 01:50:27;;;;;;;3.5;2.1;;;;;;;;;;;;;
2019/11/02 01:52:57;;;;;;;2.5;1.7;;;;;;;;;;;;;
2019/11/02 01:55:24;;;;;;;3;2;;;;;;;;;;;;;
2019/11/02 01:57:49;;;;;;;2.3;1.7;;;;;;;;;;;;;
2019/11/02 02:00:25;;;;;;;3;1.9;;;;;;;;;;;;;
2019/11/02 02:02:55;;;;;;;4;1.9;;;;;;;;;;;;;
2019/11/02 02:05:18;;;;;;;2.8;1.8;;;;;;;;;;;;;
2019/11/02 02:07:39;;;;;;;2.5;1.9;;;;;;;;;;;;;
2019/11/02 02:10:06;;;;;;;4.1;2.2;;;;;;;;;;;;;
2019/11/02 02:12:32;;;;;;;3.1;2;;;;;;;;;;;;;
2019/11/02 02:17:27;;;;;;;3.9;2;;;;;;;;;;;;;
2019/11/02 02:19:55;;;;;;;1.8;1.7;;;;;;;;;;;;;
2019/11/02 02:22:23;;;;;;;3.8;1.7;;;;;;;;;;;;;
2019/11/02 02:25:19;;;;;;;2.9;1.9;;;;;;;;;;;;;
2019/11/02 02:27:22;;;;;;;4.6;1.9;;;;;;;;;;;;;
2019/11/02 02:29:46;;;;;;;2.9;1.9;;;;;;;;;;;;;
2019/11/02 02:32:22;;;;;;;7.3;4.7;;;;;;;;;;;;;
2019/11/02 02:34:48;;;;;;;5.3;3;;;;;;;;;;;;;
2019/11/02 02:37:10;;;;;;;2.5;2;;;;;;;;;;;;;
2019/11/02 02:39:34;;;;;;;3;1.9;;;;;;;;;;;;;
2019/11/02 02:42:08;;;;;;;2.6;1.9;;;;;;;;;;;;;
2019/11/02 02:44:27;;;;;;;2.9;1.8;;;;;;;;;;;;;
2019/11/02 02:46:50;;;;;;;20.4;9.9;;;;;;;;;;;;;
2019/11/02 02:49:15;;;;;;;14.5;7.6;;;;;;;;;;;;;
2019/11/02 02:51:41;;;;;;;7.9;4.6;;;;;;;;;;;;;
2019/11/02 02:54:04;;;;;;;4.3;2.6;;;;;;;;;;;;;
2019/11/02 02:56:33;;;;;;;7.8;3.8;;;;;;;;;;;;;
2019/11/02 02:59:19;;;;;;;4.3;2.3;;;;;;;;;;;;;
2019/11/02 03:01:49;;;;;;;2.7;1.9;;;;;;;;;;;;;
2019/11/02 03:04:24;;;;;;;2.5;1.7;;;;;;;;;;;;;
2019/11/02 03:06:47;;;;;;;4.4;1.8;;;;;;;;;;;;;
2019/11/02 03:09:10;;;;;;;2.6;2.1;;;;;;;;;;;;;
2019/11/02 03:11:34;;;;;;;3.6;2.3;;;;;;;;;;;;;
2019/11/02 03:14:03;;;;;;;3.2;1.8;;;;;;;;;;;;;
2019/11/02 03:16:27;;;;;;;2.6;1.7;;;;;;;;;;;;;
2019/11/02 03:18:51;;;;;;;3.8;1.9;;;;;;;;;;;;;
2019/11/02 03:21:22;;;;;;;2.6;1.8;;;;;;;;;;;;;
2019/11/02 03:23:46;;;;;;;3.8;1.9;;;;;;;;;;;;;
2019/11/02 03:26:10;;;;;;;4.3;1.9;;;;;;;;;;;;;
2019/11/02 03:28:42;;;;;;;2.6;1.7;;;;;;;;;;;;;
2019/11/02 03:31:10;;;;;;;4.9;1.9;;;;;;;;;;;;;
2019/11/02 03:34:21;;;;;;;1.8;1.5;;;;;;;;;;;;;
2019/11/02 03:36:32;;;;;;;1.7;1.4;;;;;;;;;;;;;
2019/11/02 03:41:24;;;;;;;2.8;1.7;;;;;;;;;;;;;
2019/11/02 03:43:49;;;;;;;2.1;1.7;;;;;;;;;;;;;
2019/11/02 03:46:14;;;;;;;3.2;1.7;;;;;;;;;;;;;
2019/11/02 03:48:44;;;;;;;2.2;1.7;;;;;;;;;;;;;
2019/11/02 03:51:04;;;;;;;2.2;1.6;;;;;;;;;;;;;
2019/11/02 03:53:31;;;;;;;3;1.6;;;;;;;;;;;;;
2019/11/02 03:55:56;;;;;;;2.8;1.7;;;;;;;;;;;;;
2019/11/02 03:58:25;;;;;;;2.2;1.5;;;;;;;;;;;;;
2019/11/02 04:02:40;;;;;;;4.2;2;;;;;;;9.52;91.70605;924.8024;;;;
2019/11/02 04:05:04;;;;;;;2.7;1.8;;;;;;;9.59;91.63184;924.8033;;;;
2019/11/02 04:07:34;;;;;;;2.2;1.6;;;;;;;9.61;91.35059;924.7054;;;;
2019/11/02 04:10:00;;;;;;;3;1.7;;;;;;;9.68;91.25195;924.7217;;;;
2019/11/02 04:12:35;;;;;;;2.9;1.6;;;;;;;9.73;90.81738;924.7261;;;;
2019/11/02 04:15:03;;;;;;;3.3;1.6;;;;;;;9.68;91.27539;924.7813;;;;
2019/11/02 04:17:35;;;;;;;2.7;1.9;;;;;;;9.7;91.09668;924.7445;;;;
2019/11/02 04:20:13;;;;;;;2;1.6;;;;;;;9.73;90.83984;924.7642;;;;
2019/11/02 04:22:27;;;;;;;2.3;1.5;;;;;;;9.73;90.62598;924.7904;;;;
2019/11/02 04:24:57;;;;;;;2;1.1;;;;;;;9.84;89.60938;924.641;;;;
2019/11/02 04:27:34;;;;;;;2;1.4;;;;;;;9.94;89.63184;924.647;;;;
2019/11/02 04:30:15;;;;;;;3.3;1.7;;;;;;;10.11;88.73047;924.6528;;;;
2019/11/02 04:32:47;;;;;;;4.2;1.7;;;;;;;10.11;89.25488;924.7004;;;;
2019/11/02 04:35:23;;;;;;;6.1;1.7;;;;;;;10.27;88.21387;924.7216;;;;
2019/11/02 04:37:57;;;;;;;2.2;1.7;;;;;;;10.36;87.87891;924.6958;;;;
2019/11/02 04:40:21;;;;;;;3.2;1.9;;;;;;;10.53;87.00195;924.628;;;;
2019/11/02 04:42:43;;;;;;;4.8;2.5;;;;;;;10.3;87.6416;924.6822;;;;
2019/11/02 04:45:05;;;;;;;5.3;3.2;;;;;;;10.03;88.94336;924.6926;;;;
2019/11/02 04:47:41;;;;;;;9.3;5.3;;;;;;;10.09;88.84082;924.6578;;;;
2019/11/02 04:50:03;;;;;;;6.9;4.3;;;;;;;10.34;88.33105;924.6412;;;;
2019/11/02 04:52:35;;;;;;;6.8;4.1;;;;;;;10.19;87.86816;924.702;;;;
2019/11/02 04:55:18;;;;;;;10.7;5.4;;;;;;;10.26;88.11133;924.7424;;;;
2019/11/02 04:57:56;;;;;;;12.1;6.3;;;;;;;10.37;87.6543;924.7291;;;;
2019/11/02 05:00:24;;;;;;;9.2;5.1;;;;;;;10.26;87.79004;924.67;;;;
2019/11/02 05:02:57;;;;;;;8.8;5;;;;;;;10.25;88.02734;924.7219;;;;
2019/11/02 05:05:25;;;;;;;11.8;6;;;;;;;10.32;88.04395;924.7082;;;;
2019/11/02 05:07:50;;;;;;;15.9;6.4;;;;;;;10.4;87.76367;924.72;;;;
2019/11/02 05:10:20;;;;;;;9.8;4.3;;;;;;;10.42;87.75586;924.6707;;;;
2019/11/02 05:12:43;;;;;;;12.4;5.4;;;;;;;10.13;89.20117;924.655;;;;
2019/11/02 05:15:09;;;;;;;6.8;2.9;;;;;;;10.05;89.81152;924.589;;;;
2019/11/02 05:17:34;;;;;;;5;2.6;;;;;;;10.26;89.25195;924.6628;;;;
2019/11/02 05:20:08;;;;;;;3.4;2.2;;;;;;;10.09;89.41992;924.6156;;;;
2019/11/02 05:22:28;;;;;;;3;1.8;;;;;;;10.27;89.33398;924.615;;;;
2019/11/02 05:25:00;;;;;;;4.6;2.1;;;;;;;10.46;87.65918;924.562;;;;
2019/11/02 05:27:27;;;;;;;4;1.7;;;;;;;10.51;87.95508;924.6442;;;;
2019/11/02 05:29:53;;;;;;;3.7;1.6;;;;;;;10.71;87.67773;924.5878;;;;
2019/11/02 05:32:20;;;;;;;3.8;2.1;;;;;;;10.66;87.3584;924.6305;;;;
2019/11/02 05:34:44;;;;;;;3.4;1.8;;;;;;;10.63;87.76367;924.6437;;;;
2019/11/02 05:37:14;;;;;;;3.4;2;;;;;;;10.66;87.76953;924.7564;;;;
2019/11/02 05:39:39;;;;;;;5.6;2.3;;;;;;;10.56;88.29785;924.6707;;;;
2019/11/02 05:42:03;;;;;;;3.7;2.2;;;;;;;10.43;89.13965;924.7009;;;;
2019/11/02 05:44:27;;;;;;;4.9;2.5;;;;;;;10.41;89.05371;924.7456;;;;
2019/11/02 05:49:20;;;;;;;7.4;3.9;;;;;;;10.61;88.40918;924.6002;;;;
2019/11/02 05:51:53;;;;;;;3.7;2.5;;;;;;;10.6;88.5127;924.573;;;;
2019/11/02 05:54:17;;;;;;;3.6;2.3;;;;;;;10.75;87.84668;924.5139;;;;
2019/11/02 05:56:50;;;;;;;4.4;2;;;;;;;10.68;87.28223;924.4934;;;;
2019/11/02 05:59:22;;;;;;;3.2;1.8;;;;;;;10.77;87.48535;924.4372;;;;
2019/11/02 06:02:15;;;;;;;1.9;1.6;;;;;;;10.71;87.96387;924.3474;;;;
2019/11/02 06:04:39;;;;;;;5.4;1.8;;;;;;;10.66;88.5459;924.3161;;;;
2019/11/02 06:07:04;;;;;;;2.2;1.6;;;;;;;10.41;89.51074;924.347;;;;
2019/11/02 06:09:33;;;;;;;4.4;1.6;;;;;;;10.49;89.43555;924.2489;;;;
2019/11/02 06:12:05;;;;;;;4.7;1.2;;;;;;;10.36;87.44531;924.2193;;;;
2019/11/02 06:14:34;;;;;;;2.9;1.3;;;;;;;10.38;86.82227;924.2723;;;;
2019/11/02 06:17:12;;;;;;;1.8;1.3;;;;;;;10.71;86.21582;924.196;;;;
2019/11/02 06:19:41;;;;;;;2.7;1.3;;;;;;;10.92;85.14844;924.2609;;;;
2019/11/02 06:22:09;;;;;;;3.6;1.4;;;;;;;10.73;87.55762;924.3454;;;;
2019/11/02 06:24:39;;;;;;;2.3;1.7;;;;;;;10.9;87.28027;924.3329;;;;
2019/11/02 06:27:04;;;;;;;7.8;3.6;;;;;;;10.94;88.82031;924.4097;;;;
2019/11/02 06:29:34;;;;;;;4.8;2.6;;;;;;;10.72;89.54004;924.2605;;;;
2019/11/02 06:31:58;;;;;;;5;3.4;;;;;;;10.65;89.6748;924.3091;;;;
2019/11/02 06:34:33;;;;;;;5.2;3.2;;;;;;;10.7;89.25195;924.3283;;;;
2019/11/02 06:37:20;;;;;;;6.8;4.3;;;;;;;10.83;88.54688;924.2902;;;;
2019/11/02 06:39:51;;;;;;;5.9;3;;;;;;;10.63;89.24902;924.3651;;;;
2019/11/02 06:42:18;;;;;;;4;2.5;;;;;;;10.72;89.26563;924.2947;;;;
2019/11/02 06:44:44;;;;;;;3.4;2.5;;;;;;;10.73;88.60449;924.2938;;;;
2019/11/02 06:47:11;;;;;;;5.9;2.7;;;;;;;10.59;89.45801;924.2555;;;;
2019/11/02 06:50:16;;;;;;;7.5;3.4;;;;;;;10.61;89.19727;924.2261;;;;
2019/11/02 06:52:43;;;;;;;4.8;3.2;;;;;;;10.66;88.95703;924.231;;;;
2019/11/02 06:55:16;;;;;;;7.5;5.5;;;;;;;10.63;88.86035;924.3007;;;;
2019/11/02 06:57:48;;;;;;;8;4.5;;;;;;;10.69;88.5293;924.3516;;;;
2019/11/02 07:00:09;;;;;;;6.5;3.7;;;;;;;10.87;87.94922;924.3478;;;;
2019/11/02 07:02:33;;;;;;;8.1;2.9;;;;;;;10.86;89.74121;924.1911;;;;
2019/11/02 07:05:06;;;;;;;4.2;2.3;;;;;;;11.1;87.33203;924.2308;;;;
2019/11/02 07:07:33;;;;;;;7.6;2.8;;;;;;;10.97;87.41113;924.2538;;;;
2019/11/02 07:10:01;;;;;;;4.5;3;;;;;;;11.09;87.38867;924.1982;;;;
2019/11/02 07:12:33;;;;;;;4.4;3.1;;;;;;;11.21;87.25293;924.1805;;;;
2019/11/02 07:15:16;;;;;;;3.8;2.5;;;;;;;11.36;86.99707;924.1336;;;;
2019/11/02 07:17:42;;;;;;;4.5;2.4;;;;;;;11.58;85.80469;924.2975;;;;
2019/11/02 07:20:06;;;;;;;2.4;1.8;;;;;;;11.72;85.54492;924.2835;;;;
2019/11/02 07:22:51;;;;;;;6.8;3.2;;;;;;;11.8;85.25391;924.2911;;;;
2019/11/02 07:25:16;;;;;;;4.1;2.1;;;;;;;11.87;84.56738;924.2088;;;;
2019/11/02 07:27:39;;;;;;;3.7;2;;;;;;;11.92;85.02539;924.2;;;;
2019/11/02 07:29:58;;;;;;;20;10.5;;;;;;;12.01;84.36719;924.2715;;;;
2019/11/02 07:32:25;;;;;;;12.8;7.4;;;;;;;12.09;84.04883;924.2242;;;;
2019/11/02 07:34:50;;;;;;;9.2;6.4;;;;;;;12.11;83.91504;924.2342;;;;
2019/11/02 07:37:23;;;;;;;11;7.2;;;;;;;12.17;83.9502;924.1867;;;;
2019/11/02 07:39:48;;;;;;;8.1;5.7;;;;;;;11.86;83.77539;924.1404;;;;
2019/11/02 07:42:18;;;;;;;5.8;4.6;;;;;;;11.94;83.91602;924.1534;;;;
2019/11/02 07:44:48;;;;;;;6.4;4.1;;;;;;;12.02;83.74805;924.1401;;;;
2019/11/02 07:47:14;;;;;;;9.1;3.8;;;;;;;12.12;83.46973;924.1741;;;;
2019/11/02 07:49:43;;;;;;;6.5;4.1;;;;;;;11.95;84.80176;924.2305;;;;
2019/11/02 07:52:17;;;;;;;6.5;4.3;;;;;;;11.94;84.78809;924.2139;;;;
2019/11/02 07:54:47;;;;;;;6.4;4.6;;;;;;;12.1;84.06348;924.1625;;;;
2019/11/02 07:57:21;;;;;;;6.6;4.8;;;;;;;12.13;84.39941;924.2322;;;;
2019/11/02 07:59:48;;;;;;;8.3;4.3;;;;;;;12.31;84.55078;924.1834;;;;
2019/11/02 08:02:19;;;;;;;8;4.8;;;;;;;12.47;83.51563;924.324;;;;
2019/11/02 08:07:05;;;;;;;6.6;4.2;;;;;;;12.37;83.19727;924.2604;;;;
2019/11/02 08:09:36;;;;;;;6.2;4.5;;;;;;;12.39;83.09863;924.2145;;;;
2019/11/02 08:12:02;;;;;;;5.4;3.9;;;;;;;12.48;82.72656;924.1523;;;;
2019/11/02 08:16:56;;;;;;;4.6;3.1;;;;;;;12.64;83.26074;924.214;;;;
2019/11/02 08:19:27;;;;;;;5.9;2.5;;;;;;;12.74;82.56836;924.1951;;;;
2019/11/02 08:22:15;;;;;;;2.7;2.3;;;;;;;12.89;82.87305;924.1465;;;;
2019/11/02 08:24:41;;;;;;;3.6;2.3;;;;;;;12.91;82.1416;924.0853;;;;
2019/11/02 08:27:08;;;;;;;6.6;2.8;;;;;;;13.09;81.64746;924.0703;;;;
2019/11/02 08:29:33;;;;;;;6.2;3;;;;;;;13.17;81.01953;924.1068;;;;
2019/11/02 08:32:04;;;;;;;3.7;2.7;;;;;;;13.31;81.26465;924.0289;;;;
2019/11/02 08:34:39;;;;;;;5;2.7;;;;;;;13.52;81.18652;924.0609;;;;
2019/11/02 08:37:08;;;;;;;4.7;2.3;;;;;;;13.59;79.01563;923.9728;;;;
2019/11/02 08:39:32;;;;;;;5.4;3.2;;;;;;;13.71;79.90039;923.8748;;;;
2019/11/02 08:41:57;;;;;;;6.1;3;;;;;;;13.73;79.55859;923.8159;;;;
2019/11/02 08:44:26;;;;;;;3.5;2.2;;;;;;;13.87;78.50195;923.8381;;;;
2019/11/02 08:46:51;;;;;;;2.8;1.9;;;;;;;13.96;74.69824;923.8174;;;;
2019/11/02 08:49:24;;;;;;;4.1;1.8;;;;;;;13.72;74.55371;923.7522;;;;
2019/11/02 08:51:51;;;;;;;3.4;2;;;;;;;13.88;75.01953;923.649;;;;
2019/11/02 08:54:18;;;;;;;4.1;2.3;;;;;;;13.9;77.15137;923.6628;;;;
2019/11/02 08:56:42;;;;;;;3.7;1.8;;;;;;;14.14;76.59375;923.5767;;;;
2019/11/02 08:59:13;;;;;;;3.3;2.3;;;;;;;14.11;75.70313;923.5678;;;;
2019/11/02 09:01:38;;;;;;;2.3;2.1;;;;;;;14.04;75.26465;923.5219;;;;
2019/11/02 09:04:07;;;;;;;2.6;1.6;;;;;;;13.92;74.55371;923.5544;;;;
2019/11/02 09:06:33;;;;;;;5.4;3.3;;;;;;;14.21;73.38086;923.4698;;;;
2019/11/02 09:09:05;;;;;;;2.9;2.2;;;;;;;14.32;70.45215;923.3805;;;;
2019/11/02 09:11:29;;;;;;;6.7;4.8;;;;;;;14.64;73.4209;923.3663;;;;
2019/11/02 09:13:56;;;;;;;5.9;3.5;;;;;;;14.59;75.42871;923.4219;;;;
2019/11/02 09:16:22;;;;;;;7.9;3.9;;;;;;;14.53;75.8916;923.4126;;;;
2019/11/02 09:18:55;;;;;;;4.7;3.1;;;;;;;14.3;78.0625;923.3922;;;;
2019/11/02 09:21:22;;;;;;;5.1;3.7;;;;;;;14.07;77.51563;923.4225;;;;
2019/11/02 09:23:50;;;;;;;6.4;3.5;;;;;;;14.19;78.10059;923.4431;;;;
2019/11/02 09:26:14;;;;;;;6.2;3.4;;;;;;;14.51;77.55762;923.4411;;;;
2019/11/02 09:28:38;;;;;;;3.5;2.5;;;;;;;14.61;75.35059;923.435;;;;
2019/11/02 09:31:03;;;;;;;3.4;2.2;;;;;;;14.56;74.69824;923.474;;;;
2019/11/02 09:33:34;;;;;;;4.7;2.4;;;;;;;14.73;74.11621;923.4277;;;;
2019/11/02 09:36:04;;;;;;;4.7;3.3;;;;;;;15.25;71.15625;923.3723;;;;
2019/11/02 09:38:29;;;;;;;3.6;2.5;;;;;;;15.45;69.26172;923.4122;;;;
2019/11/02 09:40:53;;;;;;;4.1;2.6;;;;;;;15.77;66.72363;923.4109;;;;
2019/11/02 09:43:18;;;;;;;6;2.8;;;;;;;16.04;63.98828;923.4666;;;;
2019/11/02 09:45:48;;;;;;;4.7;3.2;;;;;;;16.32;63.90137;923.5105;;;;
2019/11/02 09:48:08;;;;;;;7.1;3.1;;;;;;;16.48;63.25391;923.5259;;;;
2019/11/02 09:50:35;;;;;;;4.4;3;;;;;;;16.7;64.36328;923.4805;;;;
2019/11/02 09:53:04;;;;;;;3.7;2.9;;;;;;;16.86;64.60645;923.6145;;;;
2019/11/02 09:55:31;;;;;;;6.6;3;;;;;;;16.98;65.87695;923.6426;;;;
2019/11/02 09:58:04;;;;;;;3.4;2.5;;;;;;;17.05;62.02832;923.6018;;;;
2019/11/02 10:00:33;;;;;;;3.8;2.8;;;;;;;17.02;62.34766;923.6384;;;;
2019/11/02 10:02:49;;;;;;;4.2;2.7;;;;;;;16.73;62.31738;923.5869;;;;
2019/11/02 10:05:12;;;;;;;3.8;2;;;;;;;16.55;60.37012;923.6783;;;;
2019/11/02 10:07:42;;;;;;;3.4;1.5;;;;;;;16.69;59.00098;923.742;;;;
2019/11/02 10:10:04;;;;;;;1.5;1.3;;;;;;;16.86;61.24707;923.7955;;;;
2019/11/02 10:12:31;;;;;;;2.6;1.6;;;;;;;17;59.91113;923.8762;;;;
2019/11/02 10:15:25;;;;;;;2.7;1.6;;;;;;;17.05;60.34766;923.8937;;;;
2019/11/02 10:17:56;;;;;;;3.7;1.9;;;;;;;17.06;62.22461;923.8315;;;;
2019/11/02 10:20:21;;;;;;;3.8;2.3;;;;;;;17.11;61.61816;923.8947;;;;
2019/11/02 10:22:48;;;;;;;4.3;2.3;;;;;;;17.17;60.34082;923.9219;;;;
2019/11/02 10:25:14;;;;;;;6.9;2.8;;;;;;;17.14;60.82227;923.8831;;;;
2019/11/02 10:27:45;;;;;;;6;2.7;;;;;;;17.17;61.16504;923.9001;;;;
2019/11/02 10:30:17;;;;;;;4.7;2.5;;;;;;;17.23;61.24023;923.9177;;;;
2019/11/02 10:32:36;;;;;;;3.5;2.1;;;;;;;17.31;61.57617;923.9339;;;;
2019/11/02 10:35:16;;;;;;;2.6;2;;;;;;;17.36;60.00684;923.9365;;;;
2019/11/02 10:37:56;;;;;;;2.3;1.8;;;;;;;17.47;60.68262;923.8256;;;;
2019/11/02 10:40:11;;;;;;;11;5.5;;;;;;;17.59;60.50195;923.7788;;;;
2019/11/02 10:42:38;;;;;;;13.5;6.7;;;;;;;17.54;56.71289;923.6841;;;;
2019/11/02 10:45:08;;;;;;;8.8;2.2;;;;;;;17.64;55.22852;923.749;;;;
2019/11/02 10:47:31;;;;;;;3.8;2.1;;;;;;;17.77;58.39063;923.7341;;;;
2019/11/02 10:50:02;;;;;;;4.5;2.4;;;;;;;17.92;57.25;923.7209;;;;
2019/11/02 10:52:27;;;;;;;5.1;2.1;;;;;;;18.16;58.49023;923.7182;;;;
2019/11/02 10:54:58;;;;;;;4.8;1.9;;;;;;;18.31;57.43945;923.717;;;;
2019/11/02 10:57:22;;;;;;;5.3;2.4;;;;;;;18.28;59.39941;923.7344;;;;
2019/11/02 10:59:47;;;;;;;8.5;3.3;;;;;;;18.14;60.47363;923.7064;;;;
2019/11/02 11:02:14;;;;;;;6.4;3;;;;;;;17.97;60.20703;923.6746;;;;
2019/11/02 11:04:39;;;;;;;4.8;3;;;;;;;17.75;60.91895;923.6442;;;;
2019/11/02 11:07:05;;;;;;;7.4;2.9;;;;;;;17.79;59.86914;923.5916;;;;
2019/11/02 11:09:34;;;;;;;4.1;2;;;;;;;17.91;61.44043;923.4612;;;;
2019/11/02 11:11:55;;;;;;;2.4;1.7;;;;;;;18.06;60.8584;923.5187;;;;
2019/11/02 11:14:20;;;;;;;3.8;1.5;;;;;;;18.18;59.72363;923.4361;;;;
2019/11/02 11:16:45;;;;;;;3.8;2.8;;;;;;;18.26;59.45508;923.3083;;;;
2019/11/02 11:19:14;;;;;;;2.5;1.5;;;;;;;18.3;56.58984;923.3136;;;;
2019/11/02 11:24:11;;;;;;;2.7;1.5;;;;;;;18.45;57.40039;923.2548;;;;
2019/11/02 11:26:35;;;;;;;4.2;2.6;;;;;;;18.52;56.6543;923.1411;;;;
2019/11/02 11:29:18;;;;;;;1.7;1.3;;;;;;;18.33;51.96777;923.1881;;;;
2019/11/02 11:31:49;;;;;;;2.4;1.3;;;;;;;18.34;53.14355;923.149;;;;
2019/11/02 11:34:13;;;;;;;4.6;1.6;;;;;;;18.39;51.4873;923.1516;;;;
2019/11/02 11:36:43;;;;;;;5;2.6;;;;;;;18.67;53.70801;923.142;;;;
2019/11/02 11:39:10;;;;;;;2.6;1.9;;;;;;;18.98;51.41602;923.0193;;;;
2019/11/02 11:41:35;;;;;;;6.6;2.9;;;;;;;19.66;53.13867;922.95;;;;
2019/11/02 11:44:07;;;;;;;7.1;2.9;;;;;;;19.92;48.41211;922.8956;;;;
2019/11/02 11:46:28;;;;;;;5.8;2.5;;;;;;;21.31;46.1875;922.7315;;;;
2019/11/02 11:48:51;;;;;;;7.5;4.9;;;;;;;23.81;40.4707;922.6942;;;;
2019/11/02 11:51:27;;;;;;;6.2;3.8;;;;;;;27.62;33.63574;922.7431;;;;
2019/11/02 11:53:54;;;;;;;5.8;4;;;;;;;30.31;28.98926;922.702;;;;
2019/11/02 11:56:18;;;;;;;2.7;1.4;;;;;;;31.78;25.86133;922.6569;;;;
2019/11/02 11:58:43;;;;;;;9.1;6.9;;;;;;;32.65;24.30273;922.7356;;;;
2019/11/02 12:01:08;;;;;;;4;2.6;;;;;;;31.81;25.52734;922.7631;;;;
2019/11/02 12:03:39;;;;;;;1.2;0.7;;;;;;;31.44;25.30371;922.7416;;;;
2019/11/02 12:06:06;;;;;;;1.7;0.8;;;;;;;30.24;26.74121;922.6139;;;;
2019/11/02 12:08:32;;;;;;;9.7;6.6;;;;;;;30.48;28.04492;922.6096;;;;
2019/11/02 12:11:00;;;;;;;2.5;1.3;;;;;;;31.4;24.34375;922.5784;;;;
2019/11/02 12:13:29;;;;;;;2.6;1.7;;;;;;;30.56;25.51758;922.5642;;;;
2019/11/02 12:16:00;;;;;;;3.9;1;;;;;;;29.77;25.92578;922.4598;;;;
2019/11/02 12:18:26;;;;;;;6.9;5.3;;;;;;;31.06;25.56934;922.36;;;;
2019/11/02 12:21:18;;;;;;;1.5;0.9;;;;;;;30.1;24.93066;922.4;;;;
2019/11/02 12:23:43;;;;;;;1.3;0.8;;;;;;;28.29;27.49219;922.3433;;;;
2019/11/02 12:29:19;;;;;;;1.4;0.9;;;;;;;27.57;27.79297;922.0708;;;;
2019/11/02 12:31:47;;;;;;;0.8;0.6;;;;;;;25.95;30.0459;921.9475;;;;
2019/11/02 12:34:11;;;;;;;2.2;0.8;;;;;;;25.74;32.36035;921.9285;;;;
2019/11/02 12:36:36;;;;;;;1.5;0.6;;;;;;;26.87;30.4043;921.8089;;;;
2019/11/02 12:39:04;;;;;;;1;0.9;;;;;;;28.37;29.9707;921.8103;;;;
2019/11/02 12:41:30;;;;;;;1.3;0.6;;;;;;;30.14;26.11426;921.8105;;;;
2019/11/02 12:44:03;;;;;;;1.4;0.7;;;;;;;32.42;23.47461;921.7402;;;;
2019/11/02 12:46:35;;;;;;;2.9;0.7;;;;;;;34.55;22.36719;921.8298;;;;
2019/11/02 12:49:00;;;;;;;0.6;0.4;;;;;;;34.81;20.51074;921.7815;;;;
2019/11/02 12:51:28;;;;;;;1.8;0.5;;;;;;;35.76;19.76855;921.722;;;;
2019/11/02 12:53:57;;;;;;;1.2;0.5;;;;;;;35;19.66309;921.6954;;;;
2019/11/02 12:56:26;;;;;;;0.7;0.6;;;;;;;34.73;20.38672;921.6985;;;;
2019/11/02 12:58:49;;;;;;;0.9;0.5;;;;;;;35.67;20.35645;921.7651;;;;
2019/11/02 13:01:15;;;;;;;1.1;0.6;;;;;;;34.54;20.22168;921.7025;;;;
2019/11/02 13:03:46;;;;;;;1;0.5;;;;;;;34.27;20.77637;921.758;;;;
2019/11/02 13:06:10;;;;;;;1.1;0.5;;;;;;;34.27;21.16113;921.7222;;;;
2019/11/02 13:08:38;;;;;;;1.5;0.5;;;;;;;33.48;20.7041;921.662;;;;
2019/11/02 13:11:04;;;;;;;1.1;0.7;;;;;;;33.1;21.93652;921.7119;;;;
2019/11/02 13:13:37;;;;;;;2.5;0.7;;;;;;;34.01;22.06445;921.7631;;;;
2019/11/02 13:16:00;;;;;;;1.1;0.6;;;;;;;34.73;21.32715;921.7614;;;;
2019/11/02 13:18:24;;;;;;;0.9;0.5;;;;;;;33.9;21.79395;921.7708;;;;
2019/11/02 13:21:59;;;;;;;1.1;0.6;;;;;;;30.42;24.93555;921.7195;;;;
2019/11/02 13:24:21;;;;;;;2.6;0.9;;;;;;;29.62;27.6582;921.7842;;;;
2019/11/02 13:26:46;;;;;;;1.2;0.6;;;;;;;30.83;25.73535;921.7427;;;;
2019/11/02 13:29:23;;;;;;;1.4;0.6;;;;;;;31.26;24.09668;921.717;;;;
2019/11/02 13:32:16;;;;;;;1.6;0.7;;;;;;;32.18;23.12695;921.5854;;;;
2019/11/02 13:34:38;;;;;;;1.1;0.6;;;;;;;32.43;22.43164;921.5709;;;;
2019/11/02 13:37:04;;;;;;;1.7;0.6;;;;;;;31.8;24.65234;921.5781;;;;
2019/11/02 13:39:34;;;;;;;0.8;0.5;;;;;;;30.06;24.24805;921.6731;;;;
2019/11/02 13:42:02;;;;;;;1.4;0.7;;;;;;;27.31;27.78809;921.5526;;;;
2019/11/02 13:45:06;;;;;;;3.3;0.6;;;;;;;26.88;29.40918;921.5613;;;;
2019/11/02 13:47:46;;;;;;;1.7;0.6;;;;;;;27.76;27.79297;921.5159;;;;
2019/11/02 13:50:11;;;;;;;0.8;0.7;;;;;;;27.11;28.48828;921.5125;;;;
2019/11/02 13:52:44;;;;;;;0.8;0.6;;;;;;;27.47;28.98535;921.4485;;;;
2019/11/02 13:55:14;;;;;;;1.5;0.8;;;;;;;26.49;30.24805;921.4559;;;;
2019/11/02 13:57:41;;;;;;;2.8;1.3;;;;;;;25.51;31.49316;921.5158;;;;
2019/11/02 14:00:11;;;;;;;3.3;1.7;;;;;;;24.7;32.98047;921.5024;;;;
2019/11/02 14:02:36;;;;;;;113.6;56.5;;;;;;;24.56;33.5957;921.4785;;;;
2019/11/02 14:05:09;;;;;;;3.2;2;;;;;;;24.7;34.44336;921.4542;;;;
2019/11/02 14:07:45;;;;;;;5.2;2.3;;;;;;;25.18;32.36719;921.3681;;;;
2019/11/02 14:10:16;;;;;;;3.2;2.1;;;;;;;25.74;31.47363;921.3677;;;;
2019/11/02 14:17:34;;;;;;;2.3;1.4;;;;;;;25.83;34.29395;921.1599;;;;
2019/11/02 14:20:17;;;;;;;1.7;1.3;;;;;;;25.61;34.44238;921.1777;;;;
2019/11/02 14:22:46;;;;;;;2.1;1.3;;;;;;;25.3;35.94141;921.1511;;;;
2019/11/02 14:25:17;;;;;;;20.9;16.4;;;;;;;25.25;37.41309;921.2022;;;;
2019/11/02 14:27:46;;;;;;;40.5;33.2;;;;;;;25.26;37.80371;921.2196;;;;
2019/11/02 14:30:14;;;;;;;8.7;6.8;;;;;;;25.75;37.25391;921.1856;;;;
2019/11/02 14:33:19;;;;;;;4.8;3.3;;;;;;;26.01;37.09766;921.1481;;;;
2019/11/02 14:35:45;;;;;;;4.7;2.7;;;;;;;25.68;38.1709;921.2592;;;;
2019/11/02 14:38:16;;;;;;;5.4;3.4;;;;;;;25.16;39.05762;921.2751;;;;
2019/11/02 14:40:44;;;;;;;5.4;2.5;;;;;;;24.26;41.01758;921.3052;;;;
2019/11/02 14:43:23;;;;;;;5;2.4;;;;;;;23.38;44.13477;921.2763;;;;
2019/11/02 14:45:56;;;;;;;4.5;2.5;;;;;;;22.73;45.11523;921.1914;;;;
2019/11/02 14:48:24;;;;;;;4.4;1.4;;;;;;;21.77;48.42578;921.2386;;;;
2019/11/02 14:50:57;;;;;;;3.8;1.4;;;;;;;21.21;49.79199;921.2403;;;;
2019/11/02 14:53:24;;;;;;;3.4;1.1;;;;;;;20.74;51.29492;921.2626;;;;
2019/11/02 14:55:47;;;;;;;4.5;1.4;;;;;;;20.08;53.73828;921.3178;;;;
2019/11/02 14:58:14;;;;;;;5.6;1.5;;;;;;;19.73;55.60742;921.3059;;;;
2019/11/02 15:00:44;;;;;;;4.3;1.9;;;;;;;19.44;55.60742;921.2712;;;;
2019/11/02 15:03:14;;;;;;;5.1;1.7;;;;;;;19.31;56.38281;921.247;;;;
2019/11/02 15:05:43;;;;;;;3.8;1.5;;;;;;;19.19;56.90234;921.1587;;;;
2019/11/02 15:08:13;;;;;;;3.6;1.4;;;;;;;19.07;57.86621;921.1983;;;;
2019/11/02 15:10:45;;;;;;;2.5;1.3;;;;;;;18.97;57.875;921.1781;;;;
2019/11/02 15:13:17;;;;;;;5.9;1.3;;;;;;;18.82;59.63574;921.1378;;;;
2019/11/02 15:15:46;;;;;;;4;1.2;;;;;;;18.53;59.91113;921.1426;;;;
2019/11/02 15:18:11;;;;;;;9.6;1.5;;;;;;;18.34;60.39551;921.0654;;;;
2019/11/02 15:21:08;;;;;;;4.4;1.1;;;;;;;18.19;61.36328;921.1066;;;;
2019/11/02 15:23:17;;;;;;;3.2;1.2;;;;;;;18.15;60.7998;921.1111;;;;
2019/11/02 15:25:41;;;;;;;3.1;1.1;;;;;;;18.14;60.89258;921.1226;;;;
2019/11/02 15:28:06;;;;;;;4.1;2.6;;;;;;;18.12;61.16895;921.0784;;;;
2019/11/02 15:30:32;;;;;;;9.2;5;;;;;;;18.04;61.80859;921.1531;;;;
2019/11/02 15:33:01;;;;;;;9.1;5.3;;;;;;;17.94;61.97852;921.152;;;;
2019/11/02 15:35:29;;;;;;;9.4;7.5;;;;;;;17.89;62.18164;921.1534;;;;
2019/11/02 15:37:58;;;;;;;5.7;2.9;;;;;;;17.78;62.89746;921.113;;;;
2019/11/02 15:40:33;;;;;;;5.2;2.5;;;;;;;17.61;63.59277;921.1033;;;;
2019/11/02 15:43:01;;;;;;;6;2.4;;;;;;;17.44;64.30859;921.2406;;;;
2019/11/02 15:45:27;;;;;;;6.3;2.2;;;;;;;17.24;65.32422;921.1813;;;;
2019/11/02 15:48:08;;;;;;;3.3;1.3;;;;;;;17.03;65.50098;921.2126;;;;
2019/11/02 15:50:31;;;;;;;4.6;1.5;;;;;;;16.88;66.26563;921.2517;;;;
2019/11/02 15:52:59;;;;;;;4;1.4;;;;;;;16.75;66.13086;921.2559;;;;
2019/11/02 15:55:28;;;;;;;2.8;1.4;;;;;;;16.66;66.73047;921.2459;;;;
2019/11/02 15:58:21;;;;;;;4;2;;;;;;;16.56;66.9707;921.2673;;;;
2019/11/02 16:00:54;;;;;;;4.8;2.4;;;;;;;16.31;67.73145;921.3098;;;;
2019/11/02 16:03:23;;;;;;;4.6;2.8;;;;;;;16.26;67.63086;921.271;;;;
2019/11/02 16:05:48;;;;;;;7.1;2.7;;;;;;;16.22;67.5791;921.1593;;;;
2019/11/02 16:08:12;;;;;;;5.2;2.5;;;;;;;16.19;67.8623;921.2093;;;;
2019/11/02 16:10:45;;;;;;;8.6;2.9;;;;;;;16.07;68.58398;921.2203;;;;